Time;durP1;ratioP1;P1;durP2;ratioP2;P2;SDS_P1;SDS_P2;PMS_P1;PMS_P2;Temp;Humidity;BMP_temperature;BMP_pressure;BME280_temperature;BME280_humidity;BME280_pressure;Samples;Min_cycle;Max_cycle;Signal;HPM_P1;HPM_P2
2023/02/05 05:06:40;;;;;;;6.30;3.63;;;1.50;99.90;;;;;;5013974;28;20268;-62
2023/02/05 05:09:06;;;;;;;4.30;3.90;;;1.40;99.90;;;;;;5013668;28;20629;-62
2023/02/05 05:11:32;;;;;;;4.60;3.47;;;1.40;99.90;;;;;;5013871;28;20181;-62
2023/02/05 05:13:57;;;;;;;4.97;3.60;;;1.40;99.90;;;;;;5012431;28;20549;-62
2023/02/05 05:16:23;;;;;;;4.57;3.10;;;1.40;99.90;;;;;;5012772;28;20239;-62
2023/02/05 05:18:50;;;;;;;4.10;3.77;;;1.40;99.90;;;;;;5013898;28;20174;-62
2023/02/05 05:21:16;;;;;;;4.22;3.92;;;1.40;99.90;;;;;;5013861;28;20187;-62
2023/02/05 05:23:42;;;;;;;4.80;3.87;;;1.40;99.90;;;;;;5013246;28;20544;-62
2023/02/05 05:26:10;;;;;;;6.67;4.00;;;1.40;99.90;;;;;;4997893;28;20195;-62
2023/02/05 05:28:36;;;;;;;4.40;3.88;;;1.40;99.90;;;;;;4993744;28;20176;-62
2023/02/05 05:31:08;;;;;;;3.92;3.55;;;1.50;99.90;;;;;;4993927;28;20176;-62
2023/02/05 05:33:34;;;;;;;4.80;3.95;;;1.50;99.90;;;;;;4993122;28;20206;-63
2023/02/05 05:35:59;;;;;;;4.53;3.17;;;1.50;99.90;;;;;;4994205;28;20645;-62
2023/02/05 05:38:25;;;;;;;4.87;4.17;;;1.60;99.90;;;;;;4993550;28;20206;-62
2023/02/05 05:43:46;;;;;;;3.40;3.20;;;1.60;99.90;;;;;;4993286;28;20545;-62
2023/02/05 05:46:23;;;;;;;5.75;3.90;;;1.70;99.90;;;;;;4994633;28;20601;-62
2023/02/05 05:48:51;;;;;;;4.72;4.10;;;1.70;99.90;;;;;;4993813;28;20546;-62
2023/02/05 05:51:17;;;;;;;4.47;3.70;;;1.70;99.90;;;;;;4993818;28;20171;-62
2023/02/05 05:53:43;;;;;;;3.47;3.25;;;1.80;99.90;;;;;;4993250;28;20570;-62
2023/02/05 05:56:09;;;;;;;3.83;3.40;;;1.80;99.90;;;;;;4993506;28;20210;-62
2023/02/05 05:58:35;;;;;;;4.43;3.57;;;1.90;99.90;;;;;;4993648;28;20418;-62
2023/02/05 06:01:01;;;;;;;4.53;4.20;;;1.90;99.90;;;;;;4993236;28;20175;-62
2023/02/05 06:03:26;;;;;;;4.82;4.07;;;1.90;99.90;;;;;;4992903;28;20180;-62
2023/02/05 06:05:52;;;;;;;4.67;4.27;;;1.90;99.90;;;;;;4992898;28;20226;-62
2023/02/05 06:08:18;;;;;;;3.20;3.00;;;1.90;99.90;;;;;;4993348;28;20234;-62
2023/02/05 06:10:43;;;;;;;3.90;3.57;;;1.90;99.90;;;;;;4993407;28;20664;-62
2023/02/05 06:13:09;;;;;;;4.73;3.90;;;1.90;99.90;;;;;;4993322;28;20171;-62
2023/02/05 06:15:35;;;;;;;3.83;3.33;;;1.90;99.90;;;;;;5005366;28;20679;-61
2023/02/05 06:18:00;;;;;;;4.50;3.37;;;1.90;99.90;;;;;;5013215;28;20444;-61
2023/02/05 06:20:26;;;;;;;4.17;3.87;;;2.00;99.90;;;;;;5013041;28;20175;-62
2023/02/05 06:22:51;;;;;;;4.90;4.23;;;1.90;99.90;;;;;;5012505;28;20218;-63
2023/02/05 06:25:17;;;;;;;4.03;3.70;;;2.00;99.90;;;;;;5012912;28;20231;-63
2023/02/05 06:27:43;;;;;;;3.80;3.47;;;2.00;99.90;;;;;;5016789;28;20560;-61
2023/02/05 06:30:09;;;;;;;5.50;4.20;;;2.00;99.90;;;;;;5016449;28;20163;-62
2023/02/05 06:32:35;;;;;;;5.50;3.97;;;2.00;99.90;;;;;;5016313;28;20513;-63
2023/02/05 06:35:01;;;;;;;3.97;3.67;;;2.10;99.90;;;;;;5016025;28;20197;-64
2023/02/05 06:37:28;;;;;;;5.17;4.67;;;2.20;99.90;;;;;;5016397;28;20647;-64
2023/02/05 06:39:54;;;;;;;3.92;3.47;;;2.20;99.90;;;;;;5016049;28;20182;-65
2023/02/05 06:42:20;;;;;;;3.80;3.38;;;2.30;99.90;;;;;;5016023;28;20183;-65
2023/02/05 06:44:46;;;;;;;4.23;3.77;;;2.30;99.90;;;;;;5015598;28;20210;-64
2023/02/05 06:47:12;;;;;;;4.10;3.73;;;2.30;99.90;;;;;;5015737;28;20493;-64
2023/02/05 06:49:37;;;;;;;3.07;2.73;;;2.30;99.90;;;;;;5015532;28;20178;-65
2023/02/05 06:52:03;;;;;;;4.67;3.90;;;2.30;99.90;;;;;;5015832;28;20167;-64
2023/02/05 06:54:29;;;;;;;4.13;3.73;;;2.30;99.90;;;;;;5015563;28;20306;-64
2023/02/05 06:56:55;;;;;;;3.57;3.27;;;2.30;99.90;;;;;;5014060;28;20770;-64
2023/02/05 06:59:20;;;;;;;4.80;4.23;;;2.30;99.90;;;;;;5008628;28;20433;-65
2023/02/05 07:01:46;;;;;;;3.30;3.00;;;2.30;99.90;;;;;;5014468;28;20536;-64
2023/02/05 07:04:12;;;;;;;5.87;4.50;;;2.30;99.90;;;;;;5011897;28;20253;-66
2023/02/05 07:06:38;;;;;;;3.57;3.27;;;2.30;99.90;;;;;;5011841;28;20187;-65
2023/02/05 07:09:03;;;;;;;4.00;3.10;;;2.30;99.90;;;;;;5013963;28;20175;-68
2023/02/05 07:11:29;;;;;;;3.30;3.00;;;2.30;99.90;;;;;;5015310;28;20166;-69
2023/02/05 07:13:55;;;;;;;4.10;3.70;;;2.40;99.90;;;;;;5014077;28;20270;-68
2023/02/05 07:16:21;;;;;;;4.65;4.13;;;2.40;99.90;;;;;;5015557;28;20289;-69
2023/02/05 07:18:47;;;;;;;3.30;2.97;;;2.50;99.90;;;;;;5000955;28;20218;-67
2023/02/05 07:21:16;;;;;;;4.73;4.20;;;2.50;99.90;;;;;;4995602;28;20170;-66
2023/02/05 07:23:41;;;;;;;4.47;4.05;;;2.50;99.90;;;;;;4995365;28;20176;-67
2023/02/05 07:26:15;;;;;;;5.43;5.00;;;2.60;99.90;;;;;;4995409;28;20199;-67
2023/02/05 07:28:41;;;;;;;3.35;3.05;;;2.70;99.90;;;;;;5011936;28;20445;-63
2023/02/05 07:31:09;;;;;;;7.53;3.23;;;2.70;99.90;;;;;;5005447;28;20183;-64
2023/02/05 07:33:35;;;;;;;5.30;3.95;;;2.70;99.90;;;;;;5010221;28;20201;-64
2023/02/05 07:36:06;;;;;;;3.58;3.28;;;2.70;99.90;;;;;;5013189;28;20266;-65
2023/02/05 07:38:33;;;;;;;3.70;3.30;;;2.80;99.90;;;;;;5014158;28;20627;-62
2023/02/05 07:40:58;;;;;;;3.17;2.72;;;2.80;99.90;;;;;;5015284;28;20181;-67
2023/02/05 07:43:24;;;;;;;3.83;3.53;;;2.80;99.90;;;;;;5014354;28;20175;-66
2023/02/05 07:46:00;;;;;;;6.03;3.40;;;2.80;99.90;;;;;;5013842;28;20275;-64
2023/02/05 07:48:26;;;;;;;3.38;2.85;;;2.80;99.90;;;;;;5014428;28;20231;-65
2023/02/05 07:50:52;;;;;;;4.25;3.53;;;2.80;99.90;;;;;;5014894;28;20471;-64
2023/02/05 07:53:18;;;;;;;5.20;3.00;;;2.90;99.90;;;;;;5014222;28;20197;-63
2023/02/05 07:55:44;;;;;;;6.07;4.57;;;2.90;99.90;;;;;;5014516;28;20438;-65
2023/02/05 07:58:10;;;;;;;4.87;3.90;;;2.90;99.90;;;;;;5008385;28;20190;-65
2023/02/05 08:00:36;;;;;;;5.57;3.67;;;3.00;99.90;;;;;;5013091;28;20193;-63
2023/02/05 08:03:01;;;;;;;4.80;3.70;;;3.00;99.90;;;;;;5014020;28;20800;-68
2023/02/05 08:05:27;;;;;;;6.47;3.67;;;3.00;99.90;;;;;;5014190;28;20676;-65
2023/02/05 08:07:53;;;;;;;4.30;3.47;;;3.00;99.90;;;;;;5014311;28;20181;-64
2023/02/05 08:10:19;;;;;;;4.63;4.20;;;3.00;99.90;;;;;;4995015;28;20426;-70
2023/02/05 08:12:44;;;;;;;4.97;3.70;;;3.00;99.90;;;;;;5006387;28;20419;-63
2023/02/05 08:15:10;;;;;;;4.83;3.90;;;3.00;99.90;;;;;;5012420;28;20562;-65
2023/02/05 08:17:35;;;;;;;3.50;3.20;;;3.10;99.90;;;;;;5002910;28;20175;-64
2023/02/05 08:20:06;;;;;;;5.43;3.93;;;3.10;99.90;;;;;;5014749;28;20178;-66
2023/02/05 08:22:33;;;;;;;5.05;3.33;;;3.10;99.90;;;;;;5013905;28;20572;-65
2023/02/05 08:24:58;;;;;;;5.57;4.53;;;3.20;99.90;;;;;;5007855;28;20673;-64
2023/02/05 08:27:24;;;;;;;7.30;3.70;;;3.30;99.90;;;;;;5011988;28;20183;-64
2023/02/05 08:29:50;;;;;;;5.97;4.67;;;3.20;99.90;;;;;;5013949;28;20175;-65
2023/02/05 08:32:15;;;;;;;4.50;3.80;;;3.30;99.90;;;;;;5007956;28;20210;-65
2023/02/05 08:34:41;;;;;;;4.57;3.70;;;3.40;99.90;;;;;;5011513;28;20279;-65
2023/02/05 08:37:07;;;;;;;6.00;4.70;;;3.40;99.90;;;;;;5007449;28;20178;-64
2023/02/05 08:39:32;;;;;;;4.97;4.47;;;3.40;99.90;;;;;;5007243;28;20190;-65
2023/02/05 08:41:58;;;;;;;4.43;4.10;;;3.50;99.90;;;;;;5008493;28;20590;-65
2023/02/05 08:44:23;;;;;;;3.50;3.20;;;3.50;99.90;;;;;;5005822;28;20256;-65
2023/02/05 08:46:49;;;;;;;4.17;3.77;;;3.60;99.90;;;;;;5011508;28;20219;-66
2023/02/05 08:49:15;;;;;;;3.43;3.23;;;3.60;99.90;;;;;;5004453;28;20523;-66
2023/02/05 08:51:41;;;;;;;5.63;4.18;;;3.70;99.90;;;;;;4993916;28;20179;-67
2023/02/05 08:54:11;;;;;;;3.90;3.55;;;3.90;99.90;;;;;;5008255;28;20202;-68
2023/02/05 08:56:38;;;;;;;5.38;3.78;;;3.90;99.90;;;;;;5012285;28;20223;-67
2023/02/05 08:59:05;;;;;;;4.57;4.15;;;3.90;99.90;;;;;;5012853;28;20173;-67
2023/02/05 09:01:30;;;;;;;4.65;4.25;;;4.00;99.90;;;;;;5013190;28;20255;-65
2023/02/05 09:03:56;;;;;;;4.23;3.90;;;4.00;99.90;;;;;;5012743;28;20716;-66
2023/02/05 09:06:21;;;;;;;5.73;4.10;;;4.10;99.90;;;;;;5001924;28;20196;-66
2023/02/05 09:08:47;;;;;;;6.10;3.23;;;4.10;99.90;;;;;;5012243;28;20166;-65
2023/02/05 09:11:13;;;;;;;5.20;3.73;;;4.10;99.90;;;;;;5012472;28;20178;-65
2023/02/05 09:13:39;;;;;;;4.37;4.07;;;4.10;99.90;;;;;;5012147;28;20176;-67
2023/02/05 09:16:08;;;;;;;6.22;4.72;;;4.10;99.90;;;;;;5012496;28;20187;-67
2023/02/05 09:18:34;;;;;;;5.20;4.70;;;4.10;99.90;;;;;;5013403;28;20648;-66
2023/02/05 09:20:59;;;;;;;4.70;4.10;;;4.20;99.90;;;;;;5011082;28;20192;-64
2023/02/05 09:23:25;;;;;;;4.40;4.03;;;4.20;99.90;;;;;;5011580;28;20677;-67
2023/02/05 09:25:50;;;;;;;4.70;3.33;;;4.20;99.90;;;;;;5011778;28;20560;-63
2023/02/05 09:28:16;;;;;;;5.83;5.30;;;4.20;99.90;;;;;;5012360;28;20176;-66
2023/02/05 09:30:46;;;;;;;5.80;4.37;;;4.30;99.90;;;;;;5012668;28;20653;-65
2023/02/05 09:33:13;;;;;;;3.88;3.58;;;4.30;99.90;;;;;;4999398;28;20168;-67
2023/02/05 09:35:39;;;;;;;5.22;4.50;;;4.30;99.90;;;;;;5001449;28;20212;-65
2023/02/05 09:38:04;;;;;;;4.47;4.00;;;4.40;99.90;;;;;;5003093;28;20184;-68
2023/02/05 09:40:38;;;;;;;5.67;5.07;;;4.40;99.90;;;;;;5001641;28;20988;-66
2023/02/05 09:43:19;;;;;;;7.93;4.78;;;4.50;99.90;;;;;;5001887;28;20258;-66
2023/02/05 09:46:10;;;;;;;4.68;3.92;;;4.50;99.90;;;;;;5031534;28;20757;-66
2023/02/05 09:48:59;;;;;;;4.10;3.80;;;4.50;99.90;;;;;;5003754;28;20216;-66
2023/02/05 09:51:35;;;;;;;4.35;3.90;;;4.40;99.90;;;;;;4992991;28;20184;-67
2023/02/05 09:54:13;;;;;;;6.95;5.80;;;4.30;99.90;;;;;;5001952;28;20195;-67
2023/02/05 09:56:38;;;;;;;6.50;4.40;;;4.20;99.90;;;;;;5002093;28;20167;-67
2023/02/05 09:59:05;;;;;;;6.27;5.27;;;4.10;99.90;;;;;;5002727;28;20566;-69
2023/02/05 10:01:42;;;;;;;4.43;4.00;;;4.00;99.90;;;;;;5005758;28;20409;-67
2023/02/05 10:04:08;;;;;;;4.57;4.13;;;3.90;99.90;;;;;;5011425;28;20190;-66
2023/02/05 10:06:36;;;;;;;5.55;5.05;;;3.90;99.90;;;;;;5012403;28;20291;-65
2023/02/05 10:09:34;;;;;;;9.27;5.95;;;3.80;99.90;;;;;;5015493;28;20178;-67
2023/02/05 10:12:18;;;;;;;4.18;3.75;;;3.80;99.90;;;;;;5016398;28;20253;-67
2023/02/05 10:15:17;;;;;;;4.85;4.45;;;3.70;99.90;;;;;;5016305;28;20193;-65
2023/02/05 10:18:11;;;;;;;7.03;6.07;;;3.70;99.90;;;;;;4996084;28;20187;-66
2023/02/05 10:21:05;;;;;;;6.57;5.35;;;3.80;99.90;;;;;;5001921;28;20271;-66
2023/02/05 10:23:59;;;;;;;5.22;4.72;;;3.90;99.90;;;;;;4996446;28;20172;-67
2023/02/05 10:26:34;;;;;;;6.35;5.78;;;3.90;99.90;;;;;;4996939;28;20644;-66
2023/02/05 10:29:09;;;;;;;5.20;4.70;;;3.90;99.90;;;;;;5003048;28;20176;-66
2023/02/05 10:31:42;;;;;;;7.20;6.50;;;3.90;99.90;;;;;;5016466;28;20326;-66
2023/02/05 10:34:23;;;;;;;6.05;5.45;;;3.90;99.90;;;;;;5015950;28;20193;-65
2023/02/05 10:36:51;;;;;;;7.40;5.57;;;3.90;99.90;;;;;;5016316;28;20214;-66
2023/02/05 10:39:18;;;;;;;5.63;5.13;;;3.90;99.90;;;;;;5016186;28;20222;-68
2023/02/05 10:41:51;;;;;;;12.82;6.05;;;3.90;99.90;;;;;;5016100;28;20163;-67
2023/02/05 10:44:33;;;;;;;6.20;5.07;;;3.90;99.90;;;;;;5013531;28;20731;-65
2023/02/05 10:47:15;;;;;;;9.45;6.45;;;3.90;99.90;;;;;;5015808;28;20246;-67
2023/02/05 10:49:50;;;;;;;8.48;5.85;;;4.00;99.90;;;;;;5015914;28;20198;-66
2023/02/05 10:52:16;;;;;;;7.70;5.28;;;3.90;99.90;;;;;;5015775;28;20513;-67
2023/02/05 10:54:43;;;;;;;7.27;6.17;;;4.00;99.90;;;;;;5015282;28;20191;-65
2023/02/05 10:57:17;;;;;;;6.22;5.63;;;4.00;99.90;;;;;;5013118;28;20444;-66
2023/02/05 10:59:58;;;;;;;10.68;6.70;;;4.10;99.90;;;;;;4996317;28;20183;-66
2023/02/05 11:02:38;;;;;;;8.93;6.20;;;4.10;99.90;;;;;;4994673;28;20220;-66
2023/02/05 11:05:17;;;;;;;6.63;5.80;;;4.20;99.90;;;;;;5011628;28;20351;-66
2023/02/05 11:07:46;;;;;;;8.07;6.63;;;4.30;99.90;;;;;;5015628;28;20194;-66
2023/02/05 11:10:33;;;;;;;11.25;6.10;;;4.30;99.90;;;;;;5015470;28;20199;-67
2023/02/05 11:13:16;;;;;;;5.93;5.22;;;4.40;99.90;;;;;;5014952;28;20170;-67
2023/02/05 11:15:57;;;;;;;6.93;5.78;;;4.40;99.90;;;;;;5000230;28;20567;-64
2023/02/05 11:18:28;;;;;;;8.35;5.28;;;4.40;99.90;;;;;;4995586;28;20196;-66
2023/02/05 11:21:02;;;;;;;7.63;6.60;;;4.50;99.90;;;;;;4996101;28;20180;-64
2023/02/05 11:23:31;;;;;;;10.93;5.78;;;4.50;99.90;;;;;;4995730;28;20523;-64
2023/02/05 11:25:57;;;;;;;6.95;5.95;;;4.40;99.90;;;;;;4995508;28;20207;-65
2023/02/05 11:28:34;;;;;;;7.10;6.45;;;4.50;99.90;;;;;;4995915;28;20177;-64
2023/02/05 11:31:31;;;;;;;6.38;5.78;;;4.50;99.90;;;;;;4996021;28;20175;-64
2023/02/05 11:34:06;;;;;;;9.57;6.45;;;4.50;99.90;;;;;;5008239;28;20595;-67
2023/02/05 11:36:32;;;;;;;8.90;6.35;;;4.60;99.90;;;;;;5015064;28;20558;-66
2023/02/05 11:38:57;;;;;;;11.10;6.40;;;4.60;99.90;;;;;;5014601;28;20217;-65
2023/02/05 11:41:46;;;;;;;7.90;6.37;;;4.60;99.90;;;;;;5014557;28;20171;-66
2023/02/05 11:44:26;;;;;;;10.70;7.53;;;4.60;99.90;;;;;;5012776;28;20540;-65
2023/02/05 11:46:55;;;;;;;7.57;6.57;;;4.60;99.90;;;;;;5003734;28;20571;-66
2023/02/05 11:49:26;;;;;;;10.95;7.63;;;4.50;99.90;;;;;;5006263;28;20175;-66
2023/02/05 11:51:55;;;;;;;9.40;7.15;;;4.50;99.90;;;;;;5011202;28;20206;-65
2023/02/05 11:54:24;;;;;;;8.57;6.70;;;4.60;99.90;;;;;;5013849;28;20186;-65
2023/02/05 11:57:05;;;;;;;8.48;6.00;;;4.60;99.90;;;;;;5013319;28;20177;-65
2023/02/05 11:59:33;;;;;;;8.70;6.40;;;4.70;99.90;;;;;;5014381;28;20179;-65
2023/02/05 12:02:29;;;;;;;13.50;7.63;;;4.60;99.90;;;;;;5014758;28;20547;-65
2023/02/05 12:05:05;;;;;;;8.25;6.97;;;4.70;99.90;;;;;;5013498;28;20211;-66
2023/02/05 12:07:45;;;;;;;7.00;6.35;;;4.70;99.90;;;;;;5014463;28;20171;-67
2023/02/05 12:10:25;;;;;;;5.88;5.10;;;4.60;99.90;;;;;;5014681;28;20577;-66
2023/02/05 12:13:28;;;;;;;7.28;6.40;;;4.70;99.90;;;;;;4997725;28;20167;-66
2023/02/05 12:16:04;;;;;;;9.60;6.95;;;4.70;99.90;;;;;;4994790;28;20679;-64
2023/02/05 12:18:45;;;;;;;13.65;7.57;;;4.80;99.90;;;;;;4995158;28;20173;-65
2023/02/05 12:21:50;;;;;;;10.43;7.32;;;4.90;99.90;;;;;;4995055;28;20168;-65
2023/02/05 12:24:34;;;;;;;9.18;6.20;;;4.90;99.90;;;;;;5012776;28;20195;-64
2023/02/05 12:27:27;;;;;;;6.78;5.55;;;4.90;99.90;;;;;;4994591;28;20569;-63
2023/02/05 12:30:10;;;;;;;7.60;6.65;;;4.90;99.90;;;;;;4994870;28;20176;-65
2023/02/05 12:32:50;;;;;;;8.20;7.30;;;4.90;99.90;;;;;;4993944;28;20175;-65
2023/02/05 12:35:49;;;;;;;8.23;7.00;;;4.90;99.90;;;;;;4994517;28;20196;-65
2023/02/05 12:38:48;;;;;;;8.65;6.03;;;4.80;99.90;;;;;;4994387;28;20179;-66
2023/02/05 12:41:20;;;;;;;8.85;7.05;;;4.80;99.90;;;;;;4994821;28;20191;-66
2023/02/05 12:43:52;;;;;;;7.45;6.75;;;4.70;99.90;;;;;;4994068;28;20184;-66
2023/02/05 12:46:51;;;;;;;8.07;7.30;;;4.70;99.90;;;;;;4994449;28;20207;-66
2023/02/05 12:49:54;;;;;;;8.02;6.00;;;4.70;99.90;;;;;;4994452;28;20542;-65
2023/02/05 12:53:00;;;;;;;8.50;6.82;;;4.60;99.90;;;;;;4994227;28;20166;-66
2023/02/05 12:55:35;;;;;;;7.10;5.90;;;4.60;99.90;;;;;;4995064;28;20198;-64
2023/02/05 12:58:04;;;;;;;10.75;6.40;;;4.60;99.90;;;;;;4994449;28;20220;-63
2023/02/05 13:00:53;;;;;;;8.38;5.68;;;4.70;99.90;;;;;;4994258;28;20172;-63
2023/02/05 13:03:49;;;;;;;7.90;6.32;;;4.70;99.90;;;;;;4994008;28;20209;-64
2023/02/05 13:06:36;;;;;;;6.45;5.85;;;4.70;99.90;;;;;;4994160;28;20547;-63
2023/02/05 13:09:05;;;;;;;6.10;5.50;;;4.80;99.90;;;;;;4993948;28;20194;-62
2023/02/05 13:11:39;;;;;;;7.03;6.32;;;4.90;99.90;;;;;;5004749;28;20176;-63
2023/02/05 13:14:19;;;;;;;8.32;6.30;;;4.90;99.90;;;;;;5012565;28;20251;-63
2023/02/05 13:16:55;;;;;;;7.25;6.55;;;5.00;99.90;;;;;;5013471;28;20671;-64
2023/02/05 13:19:39;;;;;;;10.82;5.10;;;5.00;99.90;;;;;;5013810;28;20195;-64
2023/02/05 13:28:40;;;;;;;6.07;5.30;;;5.00;99.90;;;;;;5014712;28;20232;-64
2023/02/05 13:31:17;;;;;;;6.93;5.95;;;5.00;99.90;;;;;;5014464;28;20169;-63
2023/02/05 13:33:43;;;;;;;6.20;5.28;;;5.00;99.90;;;;;;5013052;28;20181;-64
2023/02/05 13:36:24;;;;;;;9.43;6.60;;;5.00;99.90;;;;;;5014955;28;20181;-63
2023/02/05 13:39:00;;;;;;;6.13;5.15;;;5.00;99.90;;;;;;5017517;28;20409;-64
2023/02/05 13:41:31;;;;;;;7.72;5.45;;;5.00;99.90;;;;;;5017015;28;20172;-63
2023/02/05 13:44:34;;;;;;;5.78;5.00;;;5.00;99.90;;;;;;5016011;28;20204;-62
2023/02/05 13:47:02;;;;;;;4.20;3.83;;;5.00;99.90;;;;;;5017108;28;20188;-62
2023/02/05 13:49:58;;;;;;;10.75;5.30;;;5.00;99.90;;;;;;5017596;28;20167;-64
2023/02/05 13:52:34;;;;;;;7.72;4.22;;;5.00;99.90;;;;;;5017226;28;20177;-63
2023/02/05 13:55:33;;;;;;;4.65;4.25;;;5.10;99.90;;;;;;5016749;28;20197;-63
2023/02/05 13:58:25;;;;;;;7.10;4.85;;;5.10;99.90;;;;;;5015421;28;20166;-64
2023/02/05 14:00:57;;;;;;;6.38;5.00;;;5.10;99.90;;;;;;5016936;28;20175;-63
2023/02/05 14:03:29;;;;;;;13.40;6.35;;;5.10;99.90;;;;;;5014325;28;20179;-64
2023/02/05 14:05:55;;;;;;;5.50;4.78;;;5.10;99.90;;;;;;5014922;28;20563;-62
2023/02/05 14:08:25;;;;;;;6.55;5.50;;;5.00;99.90;;;;;;5013730;28;20177;-62
2023/02/05 14:11:00;;;;;;;10.68;5.40;;;5.00;99.90;;;;;;4995868;28;20175;-63
2023/02/05 14:13:31;;;;;;;6.60;5.22;;;5.00;99.90;;;;;;5006606;28;20663;-64
2023/02/05 14:15:59;;;;;;;6.43;4.63;;;5.00;99.90;;;;;;5016137;28;20588;-64
2023/02/05 14:18:40;;;;;;;6.22;5.63;;;5.00;99.90;;;;;;5006755;28;20215;-66
2023/02/05 14:21:43;;;;;;;7.20;5.32;;;5.00;99.90;;;;;;5011162;28;20178;-65
2023/02/05 14:24:24;;;;;;;3.55;3.35;;;5.00;99.90;;;;;;4974428;28;20201;-63
2023/02/05 14:26:59;;;;;;;4.20;3.88;;;5.00;99.90;;;;;;5012151;28;20194;-66
2023/02/05 14:29:45;;;;;;;4.72;2.60;;;5.00;99.90;;;;;;5015730;28;20230;-64
2023/02/05 14:32:32;;;;;;;3.05;2.28;;;4.90;99.90;;;;;;5015998;28;20265;-65
2023/02/05 14:35:03;;;;;;;5.47;2.42;;;4.80;99.90;;;;;;5012201;28;20617;-66
2023/02/05 14:37:41;;;;;;;2.17;2.00;;;4.80;99.90;;;;;;5015488;28;20179;-64
2023/02/05 14:40:21;;;;;;;3.10;2.25;;;4.70;99.90;;;;;;5015340;28;20184;-65
2023/02/05 14:42:47;;;;;;;2.35;2.17;;;4.70;99.90;;;;;;5015061;28;20189;-65
2023/02/05 14:45:15;;;;;;;2.15;2.05;;;4.70;99.90;;;;;;5001854;28;20263;-65
2023/02/05 14:47:43;;;;;;;2.30;1.98;;;4.60;99.90;;;;;;5007141;28;20177;-65
2023/02/05 14:50:22;;;;;;;3.00;2.17;;;4.60;99.90;;;;;;5015283;28;20209;-64
2023/02/05 14:52:59;;;;;;;2.70;2.50;;;4.70;99.90;;;;;;5014443;28;20183;-64
2023/02/05 14:55:42;;;;;;;2.58;2.47;;;4.60;99.90;;;;;;5000392;28;20204;-64
2023/02/05 14:58:23;;;;;;;1.77;1.67;;;4.70;99.90;;;;;;4996249;28;20172;-67
2023/02/05 15:00:48;;;;;;;6.68;4.30;;;4.60;99.90;;;;;;5013232;28;20536;-67
2023/02/05 15:03:34;;;;;;;1.73;1.63;;;4.60;99.90;;;;;;5003246;28;20261;-65
2023/02/05 15:06:16;;;;;;;2.47;1.98;;;4.60;99.90;;;;;;4995887;28;20201;-66
2023/02/05 15:09:02;;;;;;;1.88;1.77;;;4.70;99.90;;;;;;5004651;28;20187;-67
2023/02/05 15:11:27;;;;;;;5.40;4.22;;;4.60;99.90;;;;;;4995833;28;20235;-64
2023/02/05 15:14:21;;;;;;;2.40;2.20;;;4.70;99.90;;;;;;5011804;28;20197;-65
2023/02/05 15:17:09;;;;;;;3.05;1.92;;;4.70;99.90;;;;;;5015496;28;20369;-66
2023/02/05 15:19:47;;;;;;;2.47;2.28;;;4.70;99.90;;;;;;5009262;28;20189;-66
2023/02/05 15:22:48;;;;;;;2.55;2.35;;;4.70;99.90;;;;;;4997374;28;20179;-66
2023/02/05 15:25:35;;;;;;;2.67;2.53;;;4.70;99.90;;;;;;5004878;28;20215;-65
2023/02/05 15:28:06;;;;;;;4.18;2.97;;;4.70;99.90;;;;;;5005397;28;20177;-65
2023/02/05 15:30:44;;;;;;;3.55;2.50;;;4.70;99.90;;;;;;4993922;28;20168;-66
2023/02/05 15:33:23;;;;;;;3.05;2.78;;;4.60;99.90;;;;;;5001124;28;20850;-64
2023/02/05 15:36:19;;;;;;;2.28;2.08;;;4.60;99.90;;;;;;5013207;28;20204;-64
2023/02/05 15:38:52;;;;;;;3.72;2.08;;;4.60;99.90;;;;;;4999808;28;20194;-65
2023/02/05 15:41:20;;;;;;;2.50;2.30;;;4.60;99.90;;;;;;5008113;28;20189;-65
2023/02/05 15:44:00;;;;;;;3.35;3.05;;;4.60;99.90;;;;;;5020669;28;20177;-65
2023/02/05 15:46:28;;;;;;;4.63;2.38;;;4.50;99.90;;;;;;5034585;28;20204;-66
2023/02/05 15:48:55;;;;;;;2.45;2.25;;;4.50;99.90;;;;;;5015259;28;20181;-66
2023/02/05 15:51:27;;;;;;;3.00;2.75;;;4.50;99.90;;;;;;5019721;28;20221;-67
2023/02/05 15:53:55;;;;;;;2.45;2.28;;;4.50;99.90;;;;;;5014163;28;20196;-66
2023/02/05 15:56:35;;;;;;;3.08;2.65;;;4.50;99.90;;;;;;5014760;28;20636;-66
2023/02/05 15:59:04;;;;;;;2.35;2.15;;;4.50;99.90;;;;;;5012830;28;20183;-66
2023/02/05 16:01:46;;;;;;;4.97;2.95;;;4.40;99.90;;;;;;5014688;28;20568;-67
2023/02/05 16:04:21;;;;;;;3.40;3.08;;;4.40;99.90;;;;;;5014151;28;20196;-65
2023/02/05 16:06:47;;;;;;;3.13;2.92;;;4.50;99.90;;;;;;5014088;28;20191;-65
2023/02/05 16:09:18;;;;;;;2.90;2.70;;;4.50;99.90;;;;;;5013324;28;20254;-66
2023/02/05 16:11:44;;;;;;;4.80;3.60;;;4.40;99.90;;;;;;5013143;28;20217;-66
2023/02/05 16:14:18;;;;;;;4.00;3.70;;;4.40;99.90;;;;;;5013921;28;20187;-66
2023/02/05 16:17:10;;;;;;;4.28;3.42;;;4.50;99.90;;;;;;5014544;28;20559;-66
2023/02/05 16:19:51;;;;;;;7.55;4.68;;;4.40;99.90;;;;;;5001935;28;20186;-66
2023/02/05 16:22:35;;;;;;;3.63;3.33;;;4.40;99.90;;;;;;4994789;28;20182;-67
2023/02/05 16:25:06;;;;;;;4.15;3.80;;;4.40;99.90;;;;;;4994290;28;20195;-65
2023/02/05 16:27:32;;;;;;;4.72;4.30;;;4.40;99.90;;;;;;4994558;28;20175;-66
2023/02/05 16:30:06;;;;;;;5.20;3.63;;;4.40;99.90;;;;;;4994355;28;20184;-64
2023/02/05 16:32:37;;;;;;;4.57;4.18;;;4.40;99.90;;;;;;4994571;28;20178;-66
2023/02/05 16:35:06;;;;;;;5.55;4.68;;;4.40;99.90;;;;;;5012629;28;20204;-68
2023/02/05 16:37:32;;;;;;;7.15;5.40;;;4.40;99.90;;;;;;5014195;28;20182;-67
2023/02/05 16:40:00;;;;;;;3.93;3.60;;;4.40;99.90;;;;;;5014095;28;20171;-66
2023/02/05 16:42:47;;;;;;;4.65;3.78;;;4.40;99.90;;;;;;5014053;28;20179;-65
2023/02/05 16:45:20;;;;;;;4.03;3.50;;;4.40;99.90;;;;;;5013849;28;20194;-67
2023/02/05 16:48:23;;;;;;;4.32;3.97;;;4.30;99.90;;;;;;5012325;28;20177;-67
2023/02/05 16:50:50;;;;;;;5.18;4.20;;;4.30;99.90;;;;;;4992908;28;20634;-68
2023/02/05 16:53:24;;;;;;;6.22;4.72;;;4.30;99.90;;;;;;4993901;28;20164;-67
2023/02/05 16:55:57;;;;;;;5.65;4.03;;;4.30;99.90;;;;;;4994190;28;20562;-66
2023/02/05 16:58:27;;;;;;;4.72;4.40;;;4.30;99.90;;;;;;4992797;28;20179;-67
2023/02/05 17:01:00;;;;;;;6.13;4.97;;;4.30;99.90;;;;;;4994073;28;20189;-67
2023/02/05 17:03:34;;;;;;;5.63;4.40;;;4.30;99.90;;;;;;5002625;28;20187;-65
2023/02/05 17:06:01;;;;;;;4.70;4.25;;;4.40;99.90;;;;;;4999029;28;20232;-65
2023/02/05 17:08:36;;;;;;;3.63;3.33;;;4.40;99.90;;;;;;5000993;28;20188;-65
2023/02/05 17:11:06;;;;;;;3.85;3.33;;;4.40;99.90;;;;;;5013406;28;20178;-65
2023/02/05 17:13:31;;;;;;;5.10;4.60;;;4.40;99.90;;;;;;5003745;28;20231;-66
2023/02/05 17:16:18;;;;;;;4.83;4.37;;;4.40;99.90;;;;;;5008099;28;20633;-65
2023/02/05 17:19:02;;;;;;;8.32;3.53;;;4.30;99.90;;;;;;5008941;28;20214;-65
2023/02/05 17:21:33;;;;;;;4.22;3.83;;;4.30;99.90;;;;;;4994003;28;20179;-66
2023/02/05 17:24:01;;;;;;;4.72;3.90;;;4.30;99.90;;;;;;5005793;28;20198;-65
2023/02/05 17:26:31;;;;;;;5.85;5.22;;;4.30;99.90;;;;;;5004694;28;20296;-65
2023/02/05 17:29:05;;;;;;;11.13;5.40;;;4.30;99.90;;;;;;5001045;28;20209;-65
2023/02/05 17:31:36;;;;;;;8.77;6.13;;;4.40;99.90;;;;;;5011726;28;20210;-65
2023/02/05 17:34:02;;;;;;;6.85;4.97;;;4.40;99.90;;;;;;4992990;28;20199;-65
2023/02/05 17:36:27;;;;;;;8.80;6.27;;;4.30;99.90;;;;;;5003234;28;20606;-66
2023/02/05 17:38:53;;;;;;;7.90;5.67;;;4.40;99.90;;;;;;5013286;28;20203;-66
2023/02/05 17:44:12;;;;;;;8.32;5.53;;;4.30;99.90;;;;;;4993555;28;20685;-66
2023/02/05 17:46:39;;;;;;;6.75;5.50;;;4.30;99.90;;;;;;5003172;28;20256;-65
2023/02/05 17:49:04;;;;;;;9.05;5.57;;;4.30;99.90;;;;;;5013087;28;20175;-65
2023/02/05 17:51:30;;;;;;;8.50;6.30;;;4.30;99.90;;;;;;5004082;28;20263;-65
2023/02/05 17:53:57;;;;;;;7.77;5.53;;;4.30;99.90;;;;;;4993009;28;20211;-65
2023/02/05 17:56:23;;;;;;;6.63;4.97;;;4.20;99.90;;;;;;5001709;28;20198;-66
2023/02/05 17:58:50;;;;;;;5.90;4.90;;;4.20;99.90;;;;;;5013056;28;20568;-65
2023/02/05 18:01:16;;;;;;;6.38;5.30;;;4.20;99.90;;;;;;4995239;28;20184;-65
2023/02/05 18:03:42;;;;;;;5.70;4.90;;;4.20;99.90;;;;;;4993140;28;20669;-66
2023/02/05 18:06:11;;;;;;;4.97;4.47;;;4.30;99.90;;;;;;4994306;28;20220;-66
2023/02/05 18:08:37;;;;;;;6.68;4.75;;;4.30;99.90;;;;;;4993170;28;20629;-65
2023/02/05 18:11:03;;;;;;;6.70;5.57;;;4.20;99.90;;;;;;5007467;28;20270;-67
2023/02/05 18:13:28;;;;;;;5.50;5.00;;;4.20;99.90;;;;;;5010372;28;20183;-65
2023/02/05 18:16:00;;;;;;;5.03;4.20;;;4.20;99.90;;;;;;5014754;28;20202;-67
2023/02/05 18:18:26;;;;;;;4.40;4.00;;;4.20;99.90;;;;;;5013784;28;20634;-66
2023/02/05 18:20:52;;;;;;;5.82;3.95;;;4.20;99.90;;;;;;5001942;28;20185;-67
2023/02/05 18:23:18;;;;;;;5.33;4.83;;;4.10;99.90;;;;;;5015866;28;20182;-65
2023/02/05 18:25:43;;;;;;;5.13;4.63;;;4.20;99.90;;;;;;5006017;28;20454;-68
2023/02/05 18:28:09;;;;;;;4.80;4.30;;;4.10;99.90;;;;;;4999709;28;20614;-67
2023/02/05 18:30:35;;;;;;;5.47;4.00;;;4.10;99.90;;;;;;5005544;28;20171;-64
2023/02/05 18:33:00;;;;;;;4.27;3.97;;;4.10;99.90;;;;;;5016094;28;20202;-64
2023/02/05 18:35:26;;;;;;;6.70;3.60;;;4.10;99.90;;;;;;5009765;28;20219;-64
2023/02/05 18:37:51;;;;;;;3.97;3.63;;;4.10;99.90;;;;;;4996688;28;20226;-64
2023/02/05 18:40:17;;;;;;;7.63;4.10;;;4.10;99.90;;;;;;5006228;28;20199;-65
2023/02/05 18:42:45;;;;;;;4.30;4.00;;;4.10;99.90;;;;;;5035450;28;20179;-64